首页
METAR-TAF:

METAR-TAF

机场 :

谢列梅捷沃国际机场

莫斯科舍列梅季耶夫, 俄罗斯

纬度: 55-58N, 经度: 037-25E, 海拔: 190米

当前天气观测

该预报发布于42分钟前的21:00 UTC
风速4节,风向
温度 6°C
湿度 81%
气压 1026 hPa
能见度10公里或以上
阴天层高于3900英尺

METAR: UUEE 212100Z 19002MPS 9999 OVC039 06/03 Q1026 R24C/CLRD62 NOSIG

时间: 00:42 (21:42 UTC)

预报

该预报发布于1小时和46分钟前的19:56 UTC
预报有效从21日的 21点(UTC)到 22日的 21点(UTC)
风速4节,风向西南
能見度: 9000
多云层高于1500英尺
成为
从 22日的 06点(UTC)到 22日的 08点(UTC)
风速14节,风向西南

TAF: UUEE 211956Z 2121/2221 22002MPS 9000 BKN015 TX08/2212Z TN02/2203Z BECMG 2206/2208 22007MPS

超过4000个机场的气象观测和天气预报(METAR&TAF报告)。

可查询的气象台以黄色和红色小点在地图上表示。

将鼠标移到小点上方,可查看气象台名称。

然后点击查看天气观测和预报。

如需切换地图:点击带黑十字的绿色按钮放大地图;点击带横线的绿色按钮缩小地图;或者点击绿色箭头查看邻近地区的地图。


METAR-TAF: